Fort Knox, KY

1:06 AM EDT on July 28, 2017 (GMT -0400)
Godman Army Air Field | | Change Station

Elev 751 ft 37.91 °N, 85.97 °W | Updated 8 minutes ago

Mostly Cloudy
Mostly Cloudy
73 °F
Feels Like 73 °F
N
7
Wind Variable Wind from WSW

Today
High -- | Low -- °F
--% Chance of Precip.
Yesterday
High -- | Low -- °F
Precip. -- in
Pressure 29.85 in
Visibility 10.0 miles
Clouds Mostly Cloudy 5000 ft
Mostly Cloudy 16000 ft
Dew Point 71 °F
Humidity 93%
Rainfall 0.00 in
Snow Depth Not available.
6:43 AM 8:56 PM
Waxing Crescent, 27% visible
METAR KFTK 280458Z AUTO 24006KT 10SM BKN050 BKN160 23/22 A2986 RMK AO2 SLP107 T02280217 402790225
Pressure 29.85 in
Visibility 10.0 miles
Clouds Mostly Cloudy 5000 ft
Mostly Cloudy 16000 ft
Dew Point 71 °F
Humidity 93%
Rainfall 0.00 in
Snow Depth Not available.
6:43 AM 8:56 PM
Waxing Crescent, 27% visible
METAR KFTK 280458Z AUTO 24006KT 10SM BKN050 BKN160 23/22 A2986 RMK AO2 SLP107 T02280217 402790225

Get Severe Weather Alerts

Thanks for signing up!

Be on the lookout for a verification email in your inbox.

You'll start receiving the daily forecast at 6 AM.

×

10-Day Weather Forecast

Almanac

Astronomy

Jul. 28, 2017 Rise Set
Actual Time
Civil Twilight
Nautical Twilight
Astronomical Twilight
Moon
Length of Visible Light
Length of Day
Tomorrow will be .
, % of the Moon is Illuminated

Today's Extremes

State Highs State Lows

Community

WunderPhotos

Category 6

Welcome to Category 6. This is the collective home for Weather Underground's featured writeups by Dr. Jeff Masters (right), Bob Henson (left), Chris Burt, and other regular contributors.

Nearby

Air Quality

  Air Quality AQ Index Pollutant
Not available.

Snow Depth

Station Depth Elevation

Earthquake Activity

City Distance Mag. Time & Date
Minimum magnitude displayed is 2.5.

Coastal Water Temperatures

Place Temperature

Stations

Nearby Weather Stations

Station Location Temp. Windchill Dew Point Humidity Wind Precip. Elev Updated Type
                   

Watches & Warnings

There are currently no watches in effect.